sensor_id;sensor_type;location;lat;lon;timestamp;pressure;altitude;pressure_sealevel;temperature;humidity
62333;BME280;48624;49.812;8.562;2022-11-20T00:00:48;100178.53;;;2.55;100.00
62333;BME280;48624;49.812;8.562;2022-11-20T00:03:13;100178.03;;;2.45;100.00
62333;BME280;48624;49.812;8.562;2022-11-20T00:05:38;100174.84;;;2.14;100.00
62333;BME280;48624;49.812;8.562;2022-11-20T00:08:04;100162.03;;;2.06;100.00
62333;BME280;48624;49.812;8.562;2022-11-20T00:10:30;100167.34;;;2.27;100.00
62333;BME280;48624;49.812;8.562;2022-11-20T00:12:55;100178.38;;;2.35;100.00
62333;BME280;48624;49.812;8.562;2022-11-20T00:15:20;100177.41;;;2.38;100.00
62333;BME280;48624;49.812;8.562;2022-11-20T00:17:46;100175.53;;;2.42;100.00
62333;BME280;48624;49.812;8.562;2022-11-20T00:20:11;100169.34;;;2.44;100.00
62333;BME280;48624;49.812;8.562;2022-11-20T00:22:38;100174.25;;;2.30;100.00
62333;BME280;48624;49.812;8.562;2022-11-20T00:25:03;100170.97;;;2.25;100.00
62333;BME280;48624;49.812;8.562;2022-11-20T00:27:29;100175.72;;;2.37;100.00
62333;BME280;48624;49.812;8.562;2022-11-20T00:29:54;100174.75;;;2.40;100.00
62333;BME280;48624;49.812;8.562;2022-11-20T00:32:19;100182.09;;;2.30;100.00
62333;BME280;48624;49.812;8.562;2022-11-20T00:34:44;100178.72;;;2.26;100.00
62333;BME280;48624;49.812;8.562;2022-11-20T00:37:10;100177.59;;;2.33;100.00
62333;BME280;48624;49.812;8.562;2022-11-20T00:39:35;100174.59;;;2.20;100.00
62333;BME280;48624;49.812;8.562;2022-11-20T00:42:00;100161.94;;;2.32;100.00
62333;BME280;48624;49.812;8.562;2022-11-20T00:44:26;100157.06;;;2.46;100.00
62333;BME280;48624;49.812;8.562;2022-11-20T00:46:51;100148.13;;;2.52;100.00
62333;BME280;48624;49.812;8.562;2022-11-20T00:49:16;100161.75;;;2.60;100.00
62333;BME280;48624;49.812;8.562;2022-11-20T00:51:41;100159.13;;;2.60;100.00
62333;BME280;48624;49.812;8.562;2022-11-20T00:54:07;100169.41;;;2.65;100.00
62333;BME280;48624;49.812;8.562;2022-11-20T00:56:32;100157.66;;;2.75;100.00
62333;BME280;48624;49.812;8.562;2022-11-20T00:58:59;100161.06;;;2.77;100.00
62333;BME280;48624;49.812;8.562;2022-11-20T01:01:26;100169.88;;;2.97;100.00
62333;BME280;48624;49.812;8.562;2022-11-20T01:03:55;100152.94;;;2.85;100.00
62333;BME280;48624;49.812;8.562;2022-11-20T01:06:24;100161.91;;;3.00;100.00
62333;BME280;48624;49.812;8.562;2022-11-20T01:08:54;100158.94;;;3.10;100.00
62333;BME280;48624;49.812;8.562;2022-11-20T01:11:22;100150.59;;;3.00;100.00
62333;BME280;48624;49.812;8.562;2022-11-20T01:13:50;100154.06;;;3.00;100.00
62333;BME280;48624;49.812;8.562;2022-11-20T01:16:24;100164.00;;;2.92;100.00
62333;BME280;48624;49.812;8.562;2022-11-20T01:18:52;100167.22;;;2.76;100.00
62333;BME280;48624;49.812;8.562;2022-11-20T01:21:22;100169.97;;;2.96;100.00
62333;BME280;48624;49.812;8.562;2022-11-20T01:23:49;100164.09;;;2.89;100.00
62333;BME280;48624;49.812;8.562;2022-11-20T01:26:23;100166.72;;;2.89;100.00
62333;BME280;48624;49.812;8.562;2022-11-20T01:28:49;100159.06;;;2.84;100.00
62333;BME280;48624;49.812;8.562;2022-11-20T01:33:42;100164.78;;;2.94;100.00
62333;BME280;48624;49.812;8.562;2022-11-20T01:36:08;100170.78;;;2.96;100.00
62333;BME280;48624;49.812;8.562;2022-11-20T01:38:34;100164.84;;;2.92;100.00
62333;BME280;48624;49.812;8.562;2022-11-20T01:40:59;100158.47;;;2.77;100.00
62333;BME280;48624;49.812;8.562;2022-11-20T01:43:26;100168.00;;;3.01;100.00
62333;BME280;48624;49.812;8.562;2022-11-20T01:48:26;100158.69;;;2.94;100.00
62333;BME280;48624;49.812;8.562;2022-11-20T01:50:54;100155.53;;;3.28;100.00
62333;BME280;48624;49.812;8.562;2022-11-20T01:53:24;100161.34;;;3.14;100.00
62333;BME280;48624;49.812;8.562;2022-11-20T01:55:53;100149.47;;;3.05;100.00
62333;BME280;48624;49.812;8.562;2022-11-20T01:58:22;100161.78;;;3.03;100.00
62333;BME280;48624;49.812;8.562;2022-11-20T02:00:50;100151.44;;;3.00;100.00
62333;BME280;48624;49.812;8.562;2022-11-20T02:03:17;100148.66;;;3.05;100.00
62333;BME280;48624;49.812;8.562;2022-11-20T02:05:51;100144.00;;;3.12;100.00
62333;BME280;48624;49.812;8.562;2022-11-20T02:08:19;100142.03;;;3.17;100.00
62333;BME280;48624;49.812;8.562;2022-11-20T02:10:45;100136.03;;;2.92;100.00
62333;BME280;48624;49.812;8.562;2022-11-20T02:13:10;100135.84;;;2.97;100.00
62333;BME280;48624;49.812;8.562;2022-11-20T02:15:54;100151.50;;;2.99;100.00
62333;BME280;48624;49.812;8.562;2022-11-20T02:18:21;100146.59;;;2.91;100.00
62333;BME280;48624;49.812;8.562;2022-11-20T02:20:51;100139.41;;;2.74;100.00
62333;BME280;48624;49.812;8.562;2022-11-20T02:26:22;100142.69;;;3.01;100.00
62333;BME280;48624;49.812;8.562;2022-11-20T02:28:50;100146.78;;;2.86;100.00
62333;BME280;48624;49.812;8.562;2022-11-20T02:31:15;100145.69;;;2.70;100.00
62333;BME280;48624;49.812;8.562;2022-11-20T02:33:41;100139.41;;;2.74;100.00
62333;BME280;48624;49.812;8.562;2022-11-20T02:36:09;100137.41;;;2.81;100.00
62333;BME280;48624;49.812;8.562;2022-11-20T02:38:36;100134.72;;;2.82;100.00
62333;BME280;48624;49.812;8.562;2022-11-20T02:41:02;100134.19;;;2.74;100.00
62333;BME280;48624;49.812;8.562;2022-11-20T02:43:27;100136.19;;;2.89;100.00
62333;BME280;48624;49.812;8.562;2022-11-20T02:45:53;100138.03;;;2.87;100.00
62333;BME280;48624;49.812;8.562;2022-11-20T02:48:18;100139.13;;;2.82;100.00
62333;BME280;48624;49.812;8.562;2022-11-20T02:50:43;100146.28;;;2.99;100.00
62333;BME280;48624;49.812;8.562;2022-11-20T02:53:09;100138.13;;;2.84;100.00
62333;BME280;48624;49.812;8.562;2022-11-20T02:55:34;100132.03;;;3.06;100.00
62333;BME280;48624;49.812;8.562;2022-11-20T02:58:00;100130.91;;;2.91;100.00
62333;BME280;48624;49.812;8.562;2022-11-20T03:00:25;100128.38;;;2.88;100.00
62333;BME280;48624;49.812;8.562;2022-11-20T03:02:50;100137.88;;;2.90;100.00
62333;BME280;48624;49.812;8.562;2022-11-20T03:05:16;100136.78;;;2.96;100.00
62333;BME280;48624;49.812;8.562;2022-11-20T03:07:43;100131.75;;;2.69;100.00
62333;BME280;48624;49.812;8.562;2022-11-20T03:10:09;100133.44;;;2.70;100.00
62333;BME280;48624;49.812;8.562;2022-11-20T03:12:34;100142.09;;;2.95;100.00
62333;BME280;48624;49.812;8.562;2022-11-20T03:14:59;100142.72;;;2.57;100.00
62333;BME280;48624;49.812;8.562;2022-11-20T03:17:25;100142.78;;;2.33;100.00
62333;BME280;48624;49.812;8.562;2022-11-20T03:19:50;100142.47;;;2.41;100.00
62333;BME280;48624;49.812;8.562;2022-11-20T03:22:16;100143.78;;;2.29;100.00
62333;BME280;48624;49.812;8.562;2022-11-20T03:24:41;100139.53;;;2.48;100.00
62333;BME280;48624;49.812;8.562;2022-11-20T03:27:06;100136.09;;;2.48;100.00
62333;BME280;48624;49.812;8.562;2022-11-20T03:29:34;100132.75;;;2.44;100.00
62333;BME280;48624;49.812;8.562;2022-11-20T03:32:00;100134.44;;;2.68;100.00
62333;BME280;48624;49.812;8.562;2022-11-20T03:34:25;100142.84;;;2.54;100.00
62333;BME280;48624;49.812;8.562;2022-11-20T03:36:50;100131.50;;;2.75;100.00
62333;BME280;48624;49.812;8.562;2022-11-20T03:39:16;100136.38;;;2.85;100.00
62333;BME280;48624;49.812;8.562;2022-11-20T03:41:41;100126.63;;;2.88;100.00
62333;BME280;48624;49.812;8.562;2022-11-20T03:44:09;100132.47;;;3.16;100.00
62333;BME280;48624;49.812;8.562;2022-11-20T03:46:34;100140.91;;;3.02;100.00
62333;BME280;48624;49.812;8.562;2022-11-20T03:49:00;100135.25;;;2.90;100.00
62333;BME280;48624;49.812;8.562;2022-11-20T03:51:31;100134.19;;;2.74;100.00
62333;BME280;48624;49.812;8.562;2022-11-20T03:53:58;100134.63;;;2.85;100.00
62333;BME280;48624;49.812;8.562;2022-11-20T03:56:29;100126.22;;;2.77;100.00
62333;BME280;48624;49.812;8.562;2022-11-20T03:58:55;100121.44;;;2.87;100.00
62333;BME280;48624;49.812;8.562;2022-11-20T04:01:22;100128.28;;;3.12;100.00
62333;BME280;48624;49.812;8.562;2022-11-20T04:03:49;100129.31;;;3.08;100.00
62333;BME280;48624;49.812;8.562;2022-11-20T04:06:29;100140.28;;;3.17;100.00
62333;BME280;48624;49.812;8.562;2022-11-20T04:08:56;100139.97;;;3.03;100.00
62333;BME280;48624;49.812;8.562;2022-11-20T04:11:28;100132.41;;;2.97;100.00
62333;BME280;48624;49.812;8.562;2022-11-20T04:13:58;100134.63;;;2.85;100.00
62333;BME280;48624;49.812;8.562;2022-11-20T04:16:25;100127.91;;;3.00;100.00
62333;BME280;48624;49.812;8.562;2022-11-20T04:18:55;100115.09;;;2.72;100.00
62333;BME280;48624;49.812;8.562;2022-11-20T04:21:21;100115.28;;;2.67;100.00
62333;BME280;48624;49.812;8.562;2022-11-20T04:23:47;100111.56;;;2.73;100.00
62333;BME280;48624;49.812;8.562;2022-11-20T04:26:12;100117.13;;;2.86;100.00
62333;BME280;48624;49.812;8.562;2022-11-20T04:28:39;100105.50;;;2.72;100.00
62333;BME280;48624;49.812;8.562;2022-11-20T04:31:10;100103.53;;;2.55;100.00
62333;BME280;48624;49.812;8.562;2022-11-20T04:33:36;100105.59;;;2.69;100.00
62333;BME280;48624;49.812;8.562;2022-11-20T04:36:07;100109.16;;;2.89;100.00
62333;BME280;48624;49.812;8.562;2022-11-20T04:38:33;100109.50;;;3.02;100.00
62333;BME280;48624;49.812;8.562;2022-11-20T04:41:03;100097.44;;;2.77;100.00
62333;BME280;48624;49.812;8.562;2022-11-20T04:43:30;100100.50;;;2.66;100.00
62333;BME280;48624;49.812;8.562;2022-11-20T04:45:57;100094.53;;;2.40;100.00
62333;BME280;48624;49.812;8.562;2022-11-20T04:48:24;100094.84;;;2.77;100.00
62333;BME280;48624;49.812;8.562;2022-11-20T04:50:51;100103.09;;;2.88;100.00
62333;BME280;48624;49.812;8.562;2022-11-20T04:53:17;100092.66;;;2.87;100.00
62333;BME280;48624;49.812;8.562;2022-11-20T04:55:42;100104.66;;;2.92;100.00
62333;BME280;48624;49.812;8.562;2022-11-20T04:58:08;100098.69;;;2.89;100.00
62333;BME280;48624;49.812;8.562;2022-11-20T05:00:33;100101.78;;;2.99;100.00
62333;BME280;48624;49.812;8.562;2022-11-20T05:02:58;100092.03;;;3.02;100.00
62333;BME280;48624;49.812;8.562;2022-11-20T05:05:24;100096.09;;;3.10;100.00
62333;BME280;48624;49.812;8.562;2022-11-20T05:07:49;100094.38;;;2.88;100.00
62333;BME280;48624;49.812;8.562;2022-11-20T05:10:15;100107.97;;;2.75;100.00
62333;BME280;48624;49.812;8.562;2022-11-20T05:12:40;100106.66;;;2.86;100.00
62333;BME280;48624;49.812;8.562;2022-11-20T05:15:06;100102.50;;;2.82;100.00
62333;BME280;48624;49.812;8.562;2022-11-20T05:17:31;100098.22;;;2.79;100.00
62333;BME280;48624;49.812;8.562;2022-11-20T05:19:57;100092.81;;;2.84;100.00
62333;BME280;48624;49.812;8.562;2022-11-20T05:22:22;100102.91;;;2.93;100.00
62333;BME280;48624;49.812;8.562;2022-11-20T05:24:48;100092.38;;;2.95;100.00
62333;BME280;48624;49.812;8.562;2022-11-20T05:27:13;100092.56;;;3.11;100.00
62333;BME280;48624;49.812;8.562;2022-11-20T05:29:38;100096.22;;;3.07;100.00
62333;BME280;48624;49.812;8.562;2022-11-20T05:32:04;100092.94;;;3.22;100.00
62333;BME280;48624;49.812;8.562;2022-11-20T05:34:31;100092.44;;;2.93;100.00
62333;BME280;48624;49.812;8.562;2022-11-20T05:36:56;100092.94;;;2.81;100.00
62333;BME280;48624;49.812;8.562;2022-11-20T05:39:21;100086.78;;;2.82;100.00
62333;BME280;48624;49.812;8.562;2022-11-20T05:41:47;100097.13;;;2.85;100.00
62333;BME280;48624;49.812;8.562;2022-11-20T05:44:32;100091.50;;;3.15;100.00
62333;BME280;48624;49.812;8.562;2022-11-20T05:46:59;100089.47;;;3.01;100.00
62333;BME280;48624;49.812;8.562;2022-11-20T05:49:24;100094.44;;;2.66;100.00
62333;BME280;48624;49.812;8.562;2022-11-20T05:51:49;100080.72;;;2.36;100.00
62333;BME280;48624;49.812;8.562;2022-11-20T05:54:14;100085.91;;;2.60;100.00
62333;BME280;48624;49.812;8.562;2022-11-20T05:56:40;100081.44;;;2.85;100.00
62333;BME280;48624;49.812;8.562;2022-11-20T05:59:05;100081.75;;;2.98;100.00
62333;BME280;48624;49.812;8.562;2022-11-20T06:01:30;100084.63;;;2.91;100.00
62333;BME280;48624;49.812;8.562;2022-11-20T06:03:56;100073.19;;;2.73;100.00
62333;BME280;48624;49.812;8.562;2022-11-20T06:06:22;100083.56;;;2.75;100.00
62333;BME280;48624;49.812;8.562;2022-11-20T06:08:47;100071.88;;;2.41;100.00
62333;BME280;48624;49.812;8.562;2022-11-20T06:11:14;100067.47;;;2.63;100.00
62333;BME280;48624;49.812;8.562;2022-11-20T06:13:39;100071.16;;;2.80;100.00
62333;BME280;48624;49.812;8.562;2022-11-20T06:16:05;100074.72;;;2.12;100.00
62333;BME280;48624;49.812;8.562;2022-11-20T06:18:31;100076.78;;;2.26;100.00
62333;BME280;48624;49.812;8.562;2022-11-20T06:21:20;100080.44;;;2.67;100.00
62333;BME280;48624;49.812;8.562;2022-11-20T06:23:46;100085.31;;;2.54;100.00
62333;BME280;48624;49.812;8.562;2022-11-20T06:26:17;100085.97;;;2.80;100.00
62333;BME280;48624;49.812;8.562;2022-11-20T06:28:43;100083.53;;;2.54;100.00
62333;BME280;48624;49.812;8.562;2022-11-20T06:31:11;100087.75;;;2.36;100.00
62333;BME280;48624;49.812;8.562;2022-11-20T06:33:36;100082.19;;;2.66;100.00
62333;BME280;48624;49.812;8.562;2022-11-20T06:36:02;100083.63;;;2.73;100.00
62333;BME280;48624;49.812;8.562;2022-11-20T06:38:30;100085.47;;;2.71;100.00
62333;BME280;48624;49.812;8.562;2022-11-20T06:40:56;100089.97;;;2.68;100.00
62333;BME280;48624;49.812;8.562;2022-11-20T06:43:22;100089.81;;;2.50;100.00
62333;BME280;48624;49.812;8.562;2022-11-20T06:45:55;100070.34;;;2.35;100.00
62333;BME280;48624;49.812;8.562;2022-11-20T06:48:22;100067.38;;;2.44;100.00
62333;BME280;48624;49.812;8.562;2022-11-20T06:50:47;100076.22;;;2.62;100.00
62333;BME280;48624;49.812;8.562;2022-11-20T06:53:14;100073.19;;;2.73;100.00
62333;BME280;48624;49.812;8.562;2022-11-20T06:55:45;100085.53;;;2.70;100.00
62333;BME280;48624;49.812;8.562;2022-11-20T06:58:12;100088.75;;;2.54;100.00
62333;BME280;48624;49.812;8.562;2022-11-20T07:00:37;100087.84;;;2.55;100.00
62333;BME280;48624;49.812;8.562;2022-11-20T07:03:07;100095.75;;;2.31;100.00
62333;BME280;48624;49.812;8.562;2022-11-20T07:05:34;100094.91;;;2.31;100.00
62333;BME280;48624;49.812;8.562;2022-11-20T07:07:59;100083.28;;;2.38;100.00
62333;BME280;48624;49.812;8.562;2022-11-20T07:10:26;100094.50;;;2.42;100.00
62333;BME280;48624;49.812;8.562;2022-11-20T07:12:52;100090.63;;;2.50;100.00
62333;BME280;48624;49.812;8.562;2022-11-20T07:15:19;100094.53;;;2.62;100.00
62333;BME280;48624;49.812;8.562;2022-11-20T07:17:45;100105.06;;;2.39;100.00
62333;BME280;48624;49.812;8.562;2022-11-20T07:20:11;100113.47;;;2.47;100.00
62333;BME280;48624;49.812;8.562;2022-11-20T07:22:36;100103.38;;;2.38;100.00
62333;BME280;48624;49.812;8.562;2022-11-20T07:25:03;100096.56;;;2.56;100.00
62333;BME280;48624;49.812;8.562;2022-11-20T07:27:29;100114.56;;;2.19;100.00
62333;BME280;48624;49.812;8.562;2022-11-20T07:29:54;100124.53;;;2.31;100.00
62333;BME280;48624;49.812;8.562;2022-11-20T07:32:20;100124.00;;;2.21;100.00
62333;BME280;48624;49.812;8.562;2022-11-20T07:34:45;100112.63;;;2.22;100.00
62333;BME280;48624;49.812;8.562;2022-11-20T07:37:11;100113.16;;;2.08;100.00
62333;BME280;48624;49.812;8.562;2022-11-20T07:39:37;100113.34;;;2.04;100.00
62333;BME280;48624;49.812;8.562;2022-11-20T07:42:02;100113.16;;;2.08;100.00
62333;BME280;48624;49.812;8.562;2022-11-20T07:44:28;100113.16;;;2.55;100.00
62333;BME280;48624;49.812;8.562;2022-11-20T07:46:54;100113.47;;;2.47;100.00
62333;BME280;48624;49.812;8.562;2022-11-20T07:49:19;100116.06;;;2.25;100.00
62333;BME280;48624;49.812;8.562;2022-11-20T07:51:45;100127.44;;;2.24;100.00
62333;BME280;48624;49.812;8.562;2022-11-20T07:54:10;100125.44;;;2.30;100.00
62333;BME280;48624;49.812;8.562;2022-11-20T07:56:35;100128.31;;;2.22;100.00
62333;BME280;48624;49.812;8.562;2022-11-20T07:59:01;100133.47;;;2.02;100.00
62333;BME280;48624;49.812;8.562;2022-11-20T08:01:28;100138.59;;;2.27;100.00
62333;BME280;48624;49.812;8.562;2022-11-20T08:03:53;100133.19;;;2.32;100.00
62333;BME280;48624;49.812;8.562;2022-11-20T08:06:18;100136.84;;;2.28;100.00
62333;BME280;48624;49.812;8.562;2022-11-20T08:08:45;100141.00;;;2.33;100.00
62333;BME280;48624;49.812;8.562;2022-11-20T08:11:10;100142.88;;;2.30;100.00
62333;BME280;48624;49.812;8.562;2022-11-20T08:13:54;100142.91;;;2.52;100.00
62333;BME280;48624;49.812;8.562;2022-11-20T08:16:45;100153.72;;;2.65;100.00
62333;BME280;48624;49.812;8.562;2022-11-20T08:19:12;100145.50;;;2.52;100.00
62333;BME280;48624;49.812;8.562;2022-11-20T08:21:38;100154.09;;;2.56;100.00
62333;BME280;48624;49.812;8.562;2022-11-20T08:24:04;100156.63;;;2.80;100.00
62333;BME280;48624;49.812;8.562;2022-11-20T08:26:30;100143.13;;;2.90;100.00
62333;BME280;48624;49.812;8.562;2022-11-20T08:28:56;100142.16;;;2.93;100.00
62333;BME280;48624;49.812;8.562;2022-11-20T08:31:23;100147.78;;;3.04;100.00
62333;BME280;48624;49.812;8.562;2022-11-20T08:33:49;100149.38;;;3.29;100.00
62333;BME280;48624;49.812;8.562;2022-11-20T08:36:14;100161.28;;;3.57;100.00
62333;BME280;48624;49.812;8.562;2022-11-20T08:38:40;100160.63;;;3.11;100.00
62333;BME280;48624;49.812;8.562;2022-11-20T08:41:05;100159.69;;;2.91;100.00
62333;BME280;48624;49.812;8.562;2022-11-20T08:43:52;100149.31;;;2.88;100.00
62333;BME280;48624;49.812;8.562;2022-11-20T08:46:17;100138.63;;;3.15;100.00
62333;BME280;48624;49.812;8.562;2022-11-20T08:48:43;100144.72;;;3.36;100.00
62333;BME280;48624;49.812;8.562;2022-11-20T08:51:09;100150.94;;;3.33;100.00
62333;BME280;48624;49.812;8.562;2022-11-20T08:53:34;100160.09;;;3.44;100.00
62333;BME280;48624;49.812;8.562;2022-11-20T08:56:00;100154.25;;;3.58;100.00
62333;BME280;48624;49.812;8.562;2022-11-20T08:58:25;100151.53;;;3.61;100.00
62333;BME280;48624;49.812;8.562;2022-11-20T09:00:51;100160.28;;;3.81;100.00
62333;BME280;48624;49.812;8.562;2022-11-20T09:03:16;100158.09;;;3.91;100.00
62333;BME280;48624;49.812;8.562;2022-11-20T09:05:41;100154.13;;;3.82;100.00
62333;BME280;48624;49.812;8.562;2022-11-20T09:08:07;100155.50;;;3.70;100.00
62333;BME280;48624;49.812;8.562;2022-11-20T09:10:33;100151.03;;;3.72;100.00
62333;BME280;48624;49.812;8.562;2022-11-20T09:12:58;100155.44;;;3.71;100.00
62333;BME280;48624;49.812;8.562;2022-11-20T09:15:25;100149.91;;;3.98;100.00
62333;BME280;48624;49.812;8.562;2022-11-20T09:18:01;100151.44;;;4.02;100.00
62333;BME280;48624;49.812;8.562;2022-11-20T09:20:28;100161.00;;;4.03;100.00
62333;BME280;48624;49.812;8.562;2022-11-20T09:22:55;100160.16;;;4.03;100.00
62333;BME280;48624;49.812;8.562;2022-11-20T09:25:21;100158.91;;;4.12;100.00
62333;BME280;48624;49.812;8.562;2022-11-20T09:27:46;100147.47;;;4.13;100.00
62333;BME280;48624;49.812;8.562;2022-11-20T09:30:15;100166.63;;;4.34;100.00
62333;BME280;48624;49.812;8.562;2022-11-20T09:32:41;100173.13;;;4.44;100.00
62333;BME280;48624;49.812;8.562;2022-11-20T09:35:08;100178.09;;;4.32;100.00
62333;BME280;48624;49.812;8.562;2022-11-20T09:37:33;100171.94;;;4.33;100.00
62333;BME280;48624;49.812;8.562;2022-11-20T09:39:59;100170.94;;;4.35;100.00
62333;BME280;48624;49.812;8.562;2022-11-20T09:42:36;100168.31;;;4.35;100.00
62333;BME280;48624;49.812;8.562;2022-11-20T09:53:40;100168.38;;;4.34;100.00
62333;BME280;48624;49.812;8.562;2022-11-20T09:56:11;100172.00;;;4.31;100.00
62333;BME280;48624;49.812;8.562;2022-11-20T09:58:45;100156.13;;;4.34;100.00
62333;BME280;48624;49.812;8.562;2022-11-20T10:01:17;100159.66;;;4.52;100.00
62333;BME280;48624;49.812;8.562;2022-11-20T10:03:51;100159.88;;;4.48;100.00
62333;BME280;48624;49.812;8.562;2022-11-20T10:06:28;100157.97;;;4.13;100.00
62333;BME280;48624;49.812;8.562;2022-11-20T10:11:39;100155.97;;;4.37;100.00
62333;BME280;48624;49.812;8.562;2022-11-20T10:14:30;100153.13;;;4.42;100.00
62333;BME280;48624;49.812;8.562;2022-11-20T10:17:08;100154.72;;;4.46;100.00
62333;BME280;48624;49.812;8.562;2022-11-20T10:22:39;100149.38;;;4.67;100.00
62333;BME280;48624;49.812;8.562;2022-11-20T10:25:19;100148.59;;;4.65;100.00
62333;BME280;48624;49.812;8.562;2022-11-20T10:28:04;100143.91;;;4.71;100.00
62333;BME280;48624;49.812;8.562;2022-11-20T10:30:38;100143.69;;;4.57;100.00
62333;BME280;48624;49.812;8.562;2022-11-20T10:33:18;100141.41;;;4.68;100.00
62333;BME280;48624;49.812;8.562;2022-11-20T10:35:55;100145.03;;;4.66;100.00
62333;BME280;48624;49.812;8.562;2022-11-20T10:38:34;100140.84;;;4.62;100.00
62333;BME280;48624;49.812;8.562;2022-11-20T10:41:05;100140.03;;;4.42;100.00
62333;BME280;48624;49.812;8.562;2022-11-20T10:43:53;100137.84;;;4.52;100.00
62333;BME280;48624;49.812;8.562;2022-11-20T10:46:22;100132.75;;;4.29;100.00
62333;BME280;48624;49.812;8.562;2022-11-20T10:48:49;100119.91;;;4.42;100.00
62333;BME280;48624;49.812;8.562;2022-11-20T10:51:37;100123.47;;;4.41;100.00
62333;BME280;48624;49.812;8.562;2022-11-20T10:54:17;100132.38;;;4.37;100.00
62333;BME280;48624;49.812;8.562;2022-11-20T10:56:53;100126.72;;;4.27;100.00
62333;BME280;48624;49.812;8.562;2022-11-20T11:02:47;100120.34;;;4.33;100.00
62333;BME280;48624;49.812;8.562;2022-11-20T11:07:49;100119.03;;;4.42;100.00
62333;BME280;48624;49.812;8.562;2022-11-20T11:10:24;100113.25;;;4.35;100.00
62333;BME280;48624;49.812;8.562;2022-11-20T11:12:51;100111.47;;;4.36;100.00
62333;BME280;48624;49.812;8.562;2022-11-20T11:15:37;100117.06;;;4.47;100.00
62333;BME280;48624;49.812;8.562;2022-11-20T11:18:02;100114.56;;;4.44;100.00
62333;BME280;48624;49.812;8.562;2022-11-20T11:20:28;100112.44;;;4.52;100.00
62333;BME280;48624;49.812;8.562;2022-11-20T11:22:56;100117.22;;;4.62;100.00
62333;BME280;48624;49.812;8.562;2022-11-20T11:25:30;100090.66;;;4.50;100.00
62333;BME280;48624;49.812;8.562;2022-11-20T11:28:00;100090.19;;;4.42;100.00
62333;BME280;48624;49.812;8.562;2022-11-20T11:30:28;100086.91;;;4.56;100.00
62333;BME280;48624;49.812;8.562;2022-11-20T11:33:05;100077.63;;;4.49;100.00
62333;BME280;48624;49.812;8.562;2022-11-20T11:35:31;100083.56;;;4.52;100.00
62333;BME280;48624;49.812;8.562;2022-11-20T11:38:05;100081.72;;;4.54;100.00
62333;BME280;48624;49.812;8.562;2022-11-20T11:40:33;100082.84;;;4.68;100.00
62333;BME280;48624;49.812;8.562;2022-11-20T11:43:05;100083.69;;;4.86;100.00
62333;BME280;48624;49.812;8.562;2022-11-20T11:45:53;100079.44;;;5.01;100.00
62333;BME280;48624;49.812;8.562;2022-11-20T11:48:20;100086.94;;;4.91;100.00
62333;BME280;48624;49.812;8.562;2022-11-20T11:50:50;100075.56;;;4.73;100.00
62333;BME280;48624;49.812;8.562;2022-11-20T11:53:18;100073.34;;;4.83;100.00
62333;BME280;48624;49.812;8.562;2022-11-20T11:55:47;100062.69;;;4.86;100.00
62333;BME280;48624;49.812;8.562;2022-11-20T12:03:44;100055.91;;;4.82;100.00
62333;BME280;48624;49.812;8.562;2022-11-20T12:06:14;100066.44;;;5.33;100.00
62333;BME280;48624;49.812;8.562;2022-11-20T12:08:55;100059.41;;;5.16;100.00
62333;BME280;48624;49.812;8.562;2022-11-20T12:17:01;100050.47;;;5.03;100.00
62333;BME280;48624;49.812;8.562;2022-11-20T12:19:30;100056.56;;;5.21;100.00
62333;BME280;48624;49.812;8.562;2022-11-20T12:22:41;100055.25;;;5.12;100.00
62333;BME280;48624;49.812;8.562;2022-11-20T12:24:55;100040.38;;;5.12;100.00
62333;BME280;48624;49.812;8.562;2022-11-20T12:30:10;100044.69;;;5.13;100.00
62333;BME280;48624;49.812;8.562;2022-11-20T12:35:29;100040.88;;;5.37;100.00
62333;BME280;48624;49.812;8.562;2022-11-20T12:40:54;100026.44;;;5.44;100.00
62333;BME280;48624;49.812;8.562;2022-11-20T12:43:28;100035.00;;;5.48;100.00
62333;BME280;48624;49.812;8.562;2022-11-20T12:46:35;100031.81;;;5.59;100.00
62333;BME280;48624;49.812;8.562;2022-11-20T12:49:12;100035.19;;;5.45;100.00
62333;BME280;48624;49.812;8.562;2022-11-20T12:52:03;100034.97;;;5.65;100.00
62333;BME280;48624;49.812;8.562;2022-11-20T12:54:58;100029.38;;;5.55;100.00
62333;BME280;48624;49.812;8.562;2022-11-20T12:57:56;100023.00;;;5.44;100.00
62333;BME280;48624;49.812;8.562;2022-11-20T13:00:24;100022.19;;;5.75;100.00
62333;BME280;48624;49.812;8.562;2022-11-20T13:05:27;100008.78;;;5.96;100.00
62333;BME280;48624;49.812;8.562;2022-11-20T13:07:56;100009.72;;;5.95;100.00
62333;BME280;48624;49.812;8.562;2022-11-20T13:11:14;100013.63;;;5.88;100.00
62333;BME280;48624;49.812;8.562;2022-11-20T13:13:56;100003.59;;;5.94;100.00
62333;BME280;48624;49.812;8.562;2022-11-20T13:19:15;99999.63;;;6.19;100.00
62333;BME280;48624;49.812;8.562;2022-11-20T13:21:42;99999.00;;;6.30;100.00
62333;BME280;48624;49.812;8.562;2022-11-20T13:26:38;99976.22;;;6.15;100.00
62333;BME280;48624;49.812;8.562;2022-11-20T13:29:18;99977.31;;;6.10;100.00
62333;BME280;48624;49.812;8.562;2022-11-20T13:31:46;99973.19;;;6.37;100.00
62333;BME280;48624;49.812;8.562;2022-11-20T13:34:22;99972.56;;;6.17;100.00
62333;BME280;48624;49.812;8.562;2022-11-20T13:36:51;99974.56;;;6.28;100.00
62333;BME280;48624;49.812;8.562;2022-11-20T13:39:32;99966.78;;;6.27;100.00
62333;BME280;48624;49.812;8.562;2022-11-20T13:42:00;99962.94;;;6.32;100.00
62333;BME280;48624;49.812;8.562;2022-11-20T13:44:42;99966.59;;;6.30;100.00
62333;BME280;48624;49.812;8.562;2022-11-20T13:47:29;99964.09;;;6.43;100.00
62333;BME280;48624;49.812;8.562;2022-11-20T13:49:58;99960.47;;;6.29;100.00
62333;BME280;48624;49.812;8.562;2022-11-20T13:52:50;99958.09;;;6.24;100.00
62333;BME280;48624;49.812;8.562;2022-11-20T13:58:36;99949.94;;;6.29;100.00